TVF13FV LFPO-GMFO
Flight info
| Callsign | TVF13FV |
|---|---|
| Flight time | 2h 21m |
| Altitude | 35000 |
| Route | ERIXU DCT ETAMO DCT GUERE DCT EVPOK DCT AGN DCT ANETO DCT TURUV DCT GRAUS DCT LOBAR DCT SEROX DCT CASPE DCT MLA DCT CRETA DCT RIMES DCT SAURA DCT TATOS DCT PLANA DCT VLC DCT BEGOX DCT NARGO DCT RESTU DCT DOSEK DCT AMR DCT DIGEX |
| Aircraft | B738/M-SDFGHIJ1RWXY/LB1 |
Departure
| Time | 2026-04-17 13:44 |
|---|---|
| Airport | Paris-Orly Airport (LFPO) |
Arrival
| Time | 2026-04-17 16:06 |
|---|---|
| Airport | Oujda Angads Airport (GMFO) |
| Time | Latitude | Longitude | Altitude | Speed | Heading |
|---|---|---|---|---|---|
| 2026-04-17 13:21 | 48.72731 | 2.36838 | 298 ft | 0 kts | 22° |
| 2026-04-17 13:35 | 48.72711 | 2.36827 | 303 ft | 4 kts | 21° |
| 2026-04-17 13:35 | 48.72693 | 2.36817 | 301 ft | 3 kts | 24° |
| 2026-04-17 13:35 | 48.72681 | 2.36810 | 303 ft | 2 kts | 20° |
| 2026-04-17 13:36 | 48.72670 | 2.36808 | 303 ft | 2 kts | 51° |
| 2026-04-17 13:36 | 48.72660 | 2.36800 | 303 ft | 2 kts | 312° |
| 2026-04-17 13:36 | 48.72650 | 2.36804 | 303 ft | 2 kts | 69° |
| 2026-04-17 13:36 | 48.72643 | 2.36792 | 303 ft | 2 kts | 326° |
| 2026-04-17 13:37 | 48.72639 | 2.36808 | 303 ft | 2 kts | 310° |
| 2026-04-17 13:37 | 48.72629 | 2.36811 | 303 ft | 2 kts | 1° |
| 2026-04-17 13:37 | 48.72621 | 2.36818 | 298 ft | 0 kts | 262° |
| 2026-04-17 13:38 | 48.72621 | 2.36817 | 298 ft | 0 kts | 262° |
| 2026-04-17 13:39 | 48.72611 | 2.36751 | 299 ft | 8 kts | 254° |
| 2026-04-17 13:39 | 48.72594 | 2.36674 | 300 ft | 8 kts | 250° |
| 2026-04-17 13:39 | 48.72560 | 2.36617 | 298 ft | 7 kts | 202° |
| 2026-04-17 13:39 | 48.72510 | 2.36605 | 300 ft | 7 kts | 200° |
| 2026-04-17 13:40 | 48.72481 | 2.36545 | 299 ft | 7 kts | 251° |
| 2026-04-17 13:40 | 48.72467 | 2.36474 | 298 ft | 7 kts | 255° |
| 2026-04-17 13:40 | 48.72452 | 2.36393 | 299 ft | 9 kts | 253° |
| 2026-04-17 13:40 | 48.72435 | 2.36295 | 299 ft | 10 kts | 255° |
| 2026-04-17 13:41 | 48.72414 | 2.36183 | 301 ft | 12 kts | 255° |
| 2026-04-17 13:41 | 48.72391 | 2.36059 | 298 ft | 13 kts | 255° |
| 2026-04-17 13:41 | 48.72367 | 2.35923 | 301 ft | 14 kts | 255° |
| 2026-04-17 13:41 | 48.72340 | 2.35783 | 303 ft | 14 kts | 254° |
| 2026-04-17 13:42 | 48.72309 | 2.35651 | 302 ft | 13 kts | 235° |
| 2026-04-17 13:42 | 48.72230 | 2.35604 | 300 ft | 13 kts | 176° |
| 2026-04-17 13:42 | 48.72147 | 2.35637 | 301 ft | 12 kts | 162° |
| 2026-04-17 13:42 | 48.72068 | 2.35685 | 302 ft | 12 kts | 145° |
| 2026-04-17 13:43 | 48.72017 | 2.35783 | 301 ft | 12 kts | 119° |
| 2026-04-17 13:43 | 48.71971 | 2.35881 | 299 ft | 11 kts | 136° |
| 2026-04-17 13:43 | 48.71965 | 2.35985 | 299 ft | 8 kts | 75° |
| 2026-04-17 13:43 | 48.71965 | 2.35987 | 299 ft | 0 kts | 75° |
| 2026-04-17 13:44 | 48.72034 | 2.36364 | 301 ft | 74 kts | 74° |
| 2026-04-17 13:44 | 48.72235 | 2.37449 | 300 ft | 138 kts | 75° |
| 2026-04-17 13:44 | 48.72540 | 2.39107 | 397 ft | 182 kts | 75° |
| 2026-04-17 13:44 | 48.72864 | 2.41067 | 946 ft | 199 kts | 75° |
| 2026-04-17 13:45 | 48.73232 | 2.43058 | 1908 ft | 196 kts | 72° |
| 2026-04-17 13:45 | 48.73637 | 2.45018 | 2863 ft | 197 kts | 76° |
| 2026-04-17 13:45 | 48.73843 | 2.47074 | 3737 ft | 196 kts | 84° |
| 2026-04-17 13:45 | 48.73968 | 2.49143 | 4574 ft | 199 kts | 85° |
| 2026-04-17 13:46 | 48.74081 | 2.51245 | 5331 ft | 200 kts | 86° |
| 2026-04-17 13:46 | 48.74161 | 2.53368 | 5925 ft | 209 kts | 86° |
| 2026-04-17 13:46 | 48.74232 | 2.55689 | 6092 ft | 231 kts | 95° |
| 2026-04-17 13:46 | 48.73614 | 2.57988 | 6312 ft | 247 kts | 134° |
| 2026-04-17 13:47 | 48.72130 | 2.59287 | 6755 ft | 253 kts | 169° |
| 2026-04-17 13:47 | 48.70384 | 2.59178 | 7059 ft | 266 kts | 200° |
| 2026-04-17 13:47 | 48.68709 | 2.57877 | 7573 ft | 275 kts | 214° |
| 2026-04-17 13:47 | 48.67136 | 2.56267 | 8510 ft | 273 kts | 216° |
| 2026-04-17 13:48 | 48.65566 | 2.54617 | 9322 ft | 276 kts | 217° |
| 2026-04-17 13:48 | 48.63972 | 2.52966 | 10115 ft | 279 kts | 217° |
| 2026-04-17 13:48 | 48.62340 | 2.51304 | 10653 ft | 291 kts | 216° |
| 2026-04-17 13:48 | 48.60587 | 2.49541 | 10821 ft | 315 kts | 216° |
| 2026-04-17 13:49 | 48.58688 | 2.47658 | 11074 ft | 334 kts | 216° |
| 2026-04-17 13:49 | 48.56741 | 2.45743 | 11607 ft | 342 kts | 215° |
| 2026-04-17 13:49 | 48.54737 | 2.43781 | 12343 ft | 344 kts | 215° |
| 2026-04-17 13:49 | 48.52655 | 2.41954 | 13071 ft | 349 kts | 208° |
| 2026-04-17 13:50 | 48.50354 | 2.40673 | 13755 ft | 357 kts | 198° |
| 2026-04-17 13:50 | 48.47929 | 2.39787 | 14395 ft | 361 kts | 195° |
| 2026-04-17 13:50 | 48.45466 | 2.38947 | 15017 ft | 365 kts | 195° |
| 2026-04-17 13:50 | 48.42978 | 2.38106 | 15638 ft | 368 kts | 195° |
| 2026-04-17 13:51 | 48.40469 | 2.37249 | 16247 ft | 372 kts | 195° |
| 2026-04-17 13:51 | 48.37936 | 2.36376 | 16861 ft | 375 kts | 195° |
| 2026-04-17 13:51 | 48.35385 | 2.35487 | 17469 ft | 378 kts | 195° |
| 2026-04-17 13:51 | 48.32843 | 2.34596 | 18063 ft | 382 kts | 195° |
| 2026-04-17 13:52 | 48.30244 | 2.33683 | 18635 ft | 385 kts | 195° |
| 2026-04-17 13:52 | 48.27625 | 2.32762 | 19164 ft | 388 kts | 195° |
| 2026-04-17 13:52 | 48.24994 | 2.31838 | 19712 ft | 390 kts | 195° |
| 2026-04-17 13:52 | 48.22345 | 2.30910 | 20255 ft | 392 kts | 195° |
| 2026-04-17 13:53 | 48.19681 | 2.29976 | 20779 ft | 394 kts | 195° |
| 2026-04-17 13:53 | 48.17001 | 2.29038 | 21295 ft | 397 kts | 195° |
| 2026-04-17 13:53 | 48.14301 | 2.28094 | 21796 ft | 400 kts | 195° |
| 2026-04-17 13:53 | 48.11587 | 2.27147 | 22290 ft | 402 kts | 195° |
| 2026-04-17 13:54 | 48.06043 | 2.26003 | 23220 ft | 411 kts | 180° |
| 2026-04-17 13:54 | 48.03173 | 2.26177 | 23698 ft | 414 kts | 179° |
| 2026-04-17 13:55 | 47.97387 | 2.26624 | 24473 ft | 419 kts | 179° |
| 2026-04-17 13:55 | 47.94468 | 2.26844 | 24860 ft | 421 kts | 179° |
| 2026-04-17 13:55 | 47.88581 | 2.27255 | 25604 ft | 426 kts | 179° |
| 2026-04-17 13:56 | 47.82633 | 2.27642 | 26317 ft | 430 kts | 179° |
| 2026-04-17 13:56 | 47.79635 | 2.27832 | 26663 ft | 432 kts | 179° |
| 2026-04-17 13:56 | 47.76659 | 2.28020 | 26995 ft | 435 kts | 179° |
| 2026-04-17 13:57 | 47.73630 | 2.28212 | 27317 ft | 437 kts | 179° |
| 2026-04-17 13:57 | 47.70582 | 2.28405 | 27640 ft | 439 kts | 179° |
| 2026-04-17 13:57 | 47.64447 | 2.28792 | 28273 ft | 443 kts | 179° |
| 2026-04-17 13:58 | 47.61360 | 2.28987 | 28575 ft | 445 kts | 179° |
| 2026-04-17 13:58 | 47.55137 | 2.29379 | 29151 ft | 450 kts | 179° |
| 2026-04-17 13:58 | 47.52002 | 2.29577 | 29439 ft | 452 kts | 179° |
| 2026-04-17 13:59 | 47.45744 | 2.29970 | 30063 ft | 454 kts | 179° |
| 2026-04-17 13:59 | 47.42596 | 2.30168 | 30471 ft | 451 kts | 179° |
| 2026-04-17 13:59 | 47.39469 | 2.30365 | 30846 ft | 449 kts | 179° |
| 2026-04-17 14:00 | 47.36345 | 2.30560 | 31146 ft | 449 kts | 179° |
| 2026-04-17 14:00 | 47.33216 | 2.30756 | 31422 ft | 450 kts | 179° |
| 2026-04-17 14:00 | 47.30088 | 2.30951 | 31713 ft | 450 kts | 179° |
| 2026-04-17 14:00 | 47.26965 | 2.31145 | 32043 ft | 449 kts | 179° |
| 2026-04-17 14:01 | 47.23854 | 2.31339 | 32356 ft | 448 kts | 179° |
| 2026-04-17 14:01 | 47.20736 | 2.31533 | 32643 ft | 448 kts | 180° |
| 2026-04-17 14:01 | 47.17625 | 2.31726 | 32936 ft | 448 kts | 180° |
| 2026-04-17 14:01 | 47.14513 | 2.31919 | 33248 ft | 447 kts | 180° |
| 2026-04-17 14:02 | 47.11450 | 2.32109 | 33540 ft | 446 kts | 180° |
| 2026-04-17 14:02 | 47.08350 | 2.32301 | 33812 ft | 446 kts | 180° |
| 2026-04-17 14:02 | 47.05251 | 2.32492 | 34093 ft | 445 kts | 180° |
| 2026-04-17 14:02 | 47.02158 | 2.32683 | 34350 ft | 445 kts | 180° |
| 2026-04-17 14:03 | 46.99064 | 2.32874 | 34572 ft | 445 kts | 180° |
| 2026-04-17 14:03 | 46.95974 | 2.33064 | 34771 ft | 445 kts | 180° |
| 2026-04-17 14:03 | 46.92878 | 2.33255 | 34989 ft | 445 kts | 180° |
| 2026-04-17 14:03 | 46.89791 | 2.33445 | 35193 ft | 445 kts | 180° |
| 2026-04-17 14:04 | 46.86684 | 2.33633 | 35174 ft | 448 kts | 181° |
| 2026-04-17 14:04 | 46.80534 | 2.32638 | 35186 ft | 438 kts | 198° |
| 2026-04-17 14:05 | 46.74667 | 2.30297 | 35181 ft | 436 kts | 198° |
| 2026-04-17 14:05 | 46.68867 | 2.27977 | 35182 ft | 434 kts | 198° |
| 2026-04-17 14:06 | 46.63035 | 2.25704 | 35182 ft | 434 kts | 198° |
| 2026-04-17 14:06 | 46.57201 | 2.23460 | 35182 ft | 434 kts | 198° |
| 2026-04-17 14:07 | 46.51366 | 2.21224 | 35181 ft | 434 kts | 198° |
| 2026-04-17 14:07 | 46.45512 | 2.18985 | 35192 ft | 436 kts | 198° |
| 2026-04-17 14:08 | 46.39677 | 2.16757 | 35179 ft | 437 kts | 198° |
| 2026-04-17 14:08 | 46.33787 | 2.14513 | 35177 ft | 438 kts | 199° |
| 2026-04-17 14:09 | 46.27879 | 2.12266 | 35189 ft | 440 kts | 199° |
| 2026-04-17 14:09 | 46.21949 | 2.10014 | 35172 ft | 441 kts | 200° |
| 2026-04-17 14:10 | 46.16461 | 2.06509 | 35175 ft | 431 kts | 218° |
| 2026-04-17 14:10 | 46.11572 | 2.01537 | 35178 ft | 430 kts | 219° |
| 2026-04-17 14:11 | 46.06700 | 1.96539 | 35181 ft | 430 kts | 219° |
| 2026-04-17 14:11 | 46.01807 | 1.91584 | 35175 ft | 430 kts | 219° |
| 2026-04-17 14:12 | 45.96935 | 1.86692 | 35181 ft | 430 kts | 219° |
| 2026-04-17 14:12 | 45.92035 | 1.81790 | 35181 ft | 429 kts | 219° |
| 2026-04-17 14:13 | 45.84696 | 1.74467 | 35175 ft | 428 kts | 219° |
| 2026-04-17 14:13 | 45.79813 | 1.69607 | 35178 ft | 427 kts | 219° |
| 2026-04-17 14:14 | 45.74966 | 1.64792 | 35178 ft | 427 kts | 219° |
| 2026-04-17 14:14 | 45.70086 | 1.59955 | 35181 ft | 426 kts | 219° |
| 2026-04-17 14:15 | 45.65213 | 1.55135 | 35179 ft | 426 kts | 219° |
| 2026-04-17 14:15 | 45.60342 | 1.50328 | 35183 ft | 425 kts | 218° |
| 2026-04-17 14:16 | 45.55504 | 1.45561 | 35180 ft | 425 kts | 218° |
| 2026-04-17 14:16 | 45.50635 | 1.40776 | 35176 ft | 425 kts | 218° |
| 2026-04-17 14:17 | 45.45341 | 1.36901 | 35174 ft | 433 kts | 202° |
| 2026-04-17 14:17 | 45.39447 | 1.34855 | 35165 ft | 437 kts | 197° |
| 2026-04-17 14:18 | 45.33499 | 1.33017 | 35173 ft | 438 kts | 197° |
| 2026-04-17 14:18 | 45.27594 | 1.31157 | 35163 ft | 438 kts | 197° |
| 2026-04-17 14:19 | 45.21648 | 1.29248 | 35177 ft | 438 kts | 197° |
| 2026-04-17 14:19 | 45.15705 | 1.27329 | 35171 ft | 439 kts | 197° |
| 2026-04-17 14:20 | 45.09754 | 1.25410 | 35178 ft | 439 kts | 197° |
| 2026-04-17 14:20 | 45.03808 | 1.23498 | 35182 ft | 438 kts | 197° |
| 2026-04-17 14:21 | 44.97907 | 1.21605 | 35179 ft | 438 kts | 197° |
| 2026-04-17 14:21 | 44.91963 | 1.19701 | 35166 ft | 438 kts | 197° |
| 2026-04-17 14:22 | 44.86022 | 1.17804 | 35157 ft | 437 kts | 197° |
| 2026-04-17 14:22 | 44.80088 | 1.15913 | 35159 ft | 437 kts | 197° |
| 2026-04-17 14:23 | 44.74152 | 1.14024 | 35155 ft | 437 kts | 197° |
| 2026-04-17 14:23 | 44.68219 | 1.12140 | 35150 ft | 437 kts | 197° |
| 2026-04-17 14:24 | 44.62288 | 1.10262 | 35151 ft | 437 kts | 197° |
| 2026-04-17 14:24 | 44.56392 | 1.08398 | 35144 ft | 437 kts | 197° |
| 2026-04-17 14:25 | 44.50457 | 1.06526 | 35153 ft | 437 kts | 197° |
| 2026-04-17 14:25 | 44.44525 | 1.04658 | 35147 ft | 437 kts | 197° |
| 2026-04-17 14:26 | 44.38592 | 1.02794 | 35144 ft | 437 kts | 197° |
| 2026-04-17 14:26 | 44.32657 | 1.00934 | 35144 ft | 437 kts | 197° |
| 2026-04-17 14:27 | 44.26769 | 0.99092 | 35148 ft | 437 kts | 197° |
| 2026-04-17 14:27 | 44.20836 | 0.97239 | 35144 ft | 436 kts | 197° |
| 2026-04-17 14:28 | 44.14914 | 0.95394 | 35153 ft | 436 kts | 197° |
| 2026-04-17 14:28 | 44.08995 | 0.93554 | 35145 ft | 436 kts | 197° |
| 2026-04-17 14:29 | 44.03116 | 0.91729 | 35147 ft | 436 kts | 197° |
| 2026-04-17 14:29 | 43.97200 | 0.89897 | 35146 ft | 436 kts | 196° |
| 2026-04-17 14:30 | 43.91285 | 0.88068 | 35146 ft | 435 kts | 196° |
| 2026-04-17 14:30 | 43.85354 | 0.86307 | 35142 ft | 437 kts | 195° |
| 2026-04-17 14:31 | 43.79425 | 0.84734 | 35147 ft | 437 kts | 194° |
| 2026-04-17 14:31 | 43.73452 | 0.83170 | 35147 ft | 437 kts | 194° |
| 2026-04-17 14:32 | 43.67484 | 0.81591 | 35146 ft | 437 kts | 195° |
| 2026-04-17 14:32 | 43.61514 | 0.80001 | 35151 ft | 437 kts | 195° |
| 2026-04-17 14:33 | 43.55549 | 0.78412 | 35146 ft | 437 kts | 195° |
| 2026-04-17 14:33 | 43.49618 | 0.76836 | 35152 ft | 437 kts | 195° |
| 2026-04-17 14:34 | 43.43647 | 0.75252 | 35149 ft | 437 kts | 195° |
| 2026-04-17 14:34 | 43.37677 | 0.73673 | 35147 ft | 437 kts | 195° |
| 2026-04-17 14:35 | 43.31711 | 0.72098 | 35148 ft | 436 kts | 195° |
| 2026-04-17 14:35 | 43.25758 | 0.70529 | 35147 ft | 436 kts | 195° |
| 2026-04-17 14:36 | 43.19802 | 0.68962 | 35151 ft | 435 kts | 195° |
| 2026-04-17 14:36 | 43.13853 | 0.67400 | 35155 ft | 435 kts | 195° |
| 2026-04-17 14:37 | 43.07907 | 0.65843 | 35157 ft | 435 kts | 195° |
| 2026-04-17 14:37 | 43.01961 | 0.64288 | 35153 ft | 435 kts | 195° |
| 2026-04-17 14:38 | 42.96058 | 0.62747 | 35158 ft | 435 kts | 194° |
| 2026-04-17 14:38 | 42.90116 | 0.61200 | 35164 ft | 434 kts | 194° |
| 2026-04-17 14:39 | 42.84188 | 0.59659 | 35175 ft | 434 kts | 194° |
| 2026-04-17 14:39 | 42.78255 | 0.58119 | 35172 ft | 434 kts | 194° |
| 2026-04-17 14:40 | 42.72317 | 0.56581 | 35165 ft | 435 kts | 194° |
| 2026-04-17 14:40 | 42.66366 | 0.55046 | 35153 ft | 435 kts | 194° |
| 2026-04-17 14:41 | 42.60445 | 0.53530 | 35152 ft | 437 kts | 194° |
| 2026-04-17 14:41 | 42.54461 | 0.52001 | 35146 ft | 438 kts | 194° |
| 2026-04-17 14:42 | 42.48475 | 0.50473 | 35133 ft | 438 kts | 194° |
| 2026-04-17 14:42 | 42.42488 | 0.48947 | 35136 ft | 437 kts | 194° |
| 2026-04-17 14:43 | 42.36548 | 0.47437 | 35116 ft | 437 kts | 194° |
| 2026-04-17 14:43 | 42.30580 | 0.45913 | 35109 ft | 436 kts | 194° |
| 2026-04-17 14:44 | 42.24619 | 0.44391 | 35119 ft | 436 kts | 194° |
| 2026-04-17 14:44 | 42.18664 | 0.42870 | 35108 ft | 435 kts | 194° |
| 2026-04-17 14:45 | 42.12714 | 0.41357 | 35105 ft | 435 kts | 194° |
| 2026-04-17 14:45 | 42.06798 | 0.39856 | 35098 ft | 435 kts | 194° |
| 2026-04-17 14:46 | 42.00851 | 0.38348 | 35111 ft | 435 kts | 194° |
| 2026-04-17 14:46 | 41.94902 | 0.36845 | 35116 ft | 435 kts | 194° |
| 2026-04-17 14:47 | 41.88942 | 0.35347 | 35121 ft | 436 kts | 194° |
| 2026-04-17 14:47 | 41.82975 | 0.33849 | 35125 ft | 437 kts | 194° |
| 2026-04-17 14:48 | 41.76994 | 0.32350 | 35121 ft | 438 kts | 194° |
| 2026-04-17 14:48 | 41.71006 | 0.30856 | 35123 ft | 438 kts | 194° |
| 2026-04-17 14:49 | 41.65050 | 0.29382 | 35116 ft | 438 kts | 194° |
| 2026-04-17 14:49 | 41.59052 | 0.27899 | 35112 ft | 438 kts | 194° |
| 2026-04-17 14:50 | 41.53049 | 0.26417 | 35094 ft | 438 kts | 194° |
| 2026-04-17 14:50 | 41.47052 | 0.24938 | 35100 ft | 438 kts | 193° |
| 2026-04-17 14:51 | 41.41058 | 0.23462 | 35098 ft | 438 kts | 193° |
| 2026-04-17 14:51 | 41.35057 | 0.21988 | 35091 ft | 438 kts | 193° |
| 2026-04-17 14:52 | 41.29108 | 0.20491 | 35096 ft | 438 kts | 194° |
| 2026-04-17 14:52 | 41.23115 | 0.18983 | 35092 ft | 438 kts | 193° |
| 2026-04-17 14:53 | 41.17119 | 0.17513 | 35094 ft | 438 kts | 193° |
| 2026-04-17 14:53 | 41.11150 | 0.15890 | 35101 ft | 436 kts | 198° |
| 2026-04-17 14:54 | 41.05349 | 0.13546 | 35103 ft | 436 kts | 200° |
| 2026-04-17 14:54 | 40.99603 | 0.11158 | 35103 ft | 436 kts | 200° |
| 2026-04-17 14:55 | 40.93793 | 0.08822 | 35106 ft | 436 kts | 199° |
| 2026-04-17 14:55 | 40.87982 | 0.06512 | 35109 ft | 436 kts | 199° |
| 2026-04-17 14:56 | 40.82175 | 0.04187 | 35113 ft | 436 kts | 200° |
| 2026-04-17 14:56 | 40.76364 | 0.01844 | 35106 ft | 437 kts | 200° |
| 2026-04-17 14:57 | 40.70556 | -0.00491 | 35114 ft | 436 kts | 200° |
| 2026-04-17 14:57 | 40.64785 | -0.02805 | 35120 ft | 436 kts | 200° |
| 2026-04-17 14:58 | 40.58974 | -0.05131 | 35123 ft | 436 kts | 199° |
| 2026-04-17 14:58 | 40.53167 | -0.07444 | 35136 ft | 436 kts | 199° |
| 2026-04-17 14:59 | 40.47347 | -0.09742 | 35143 ft | 437 kts | 199° |
| 2026-04-17 14:59 | 40.41532 | -0.12033 | 35148 ft | 437 kts | 199° |
| 2026-04-17 15:00 | 40.35710 | -0.14326 | 35145 ft | 437 kts | 199° |
| 2026-04-17 15:00 | 40.29895 | -0.16613 | 35153 ft | 436 kts | 199° |
| 2026-04-17 15:01 | 40.24128 | -0.18877 | 35150 ft | 435 kts | 199° |
| 2026-04-17 15:01 | 40.18332 | -0.21168 | 35144 ft | 435 kts | 199° |
| 2026-04-17 15:02 | 40.12534 | -0.23462 | 35142 ft | 435 kts | 199° |
| 2026-04-17 15:02 | 40.06736 | -0.25748 | 35140 ft | 435 kts | 199° |
| 2026-04-17 15:03 | 40.00977 | -0.28015 | 35134 ft | 435 kts | 199° |
| 2026-04-17 15:03 | 39.95168 | -0.30268 | 35122 ft | 436 kts | 199° |
| 2026-04-17 15:04 | 39.89345 | -0.32504 | 35121 ft | 436 kts | 199° |
| 2026-04-17 15:04 | 39.83530 | -0.34760 | 35120 ft | 436 kts | 199° |
| 2026-04-17 15:05 | 39.78693 | -0.36645 | 35125 ft | 437 kts | 199° |
| 2026-04-17 15:05 | 39.72869 | -0.38911 | 35126 ft | 437 kts | 199° |
| 2026-04-17 15:06 | 39.66094 | -0.41539 | 35135 ft | 438 kts | 199° |
| 2026-04-17 15:06 | 39.60253 | -0.43800 | 35127 ft | 438 kts | 199° |
| 2026-04-17 15:07 | 39.55398 | -0.45677 | 35130 ft | 438 kts | 199° |
| 2026-04-17 15:07 | 39.49559 | -0.47945 | 35131 ft | 438 kts | 200° |
| 2026-04-17 15:08 | 39.44089 | -0.51280 | 35135 ft | 434 kts | 210° |
| 2026-04-17 15:08 | 39.38793 | -0.55059 | 35125 ft | 435 kts | 211° |
| 2026-04-17 15:09 | 39.33486 | -0.58806 | 35121 ft | 435 kts | 210° |
| 2026-04-17 15:09 | 39.28160 | -0.62513 | 35119 ft | 435 kts | 210° |
| 2026-04-17 15:10 | 39.22859 | -0.66183 | 35111 ft | 435 kts | 210° |
| 2026-04-17 15:11 | 39.14856 | -0.71713 | 35108 ft | 435 kts | 210° |
| 2026-04-17 15:11 | 39.09513 | -0.75399 | 35111 ft | 435 kts | 210° |
| 2026-04-17 15:12 | 39.04170 | -0.79077 | 35108 ft | 436 kts | 210° |
| 2026-04-17 15:12 | 38.98863 | -0.82728 | 35110 ft | 435 kts | 210° |
| 2026-04-17 15:13 | 38.93522 | -0.86398 | 35113 ft | 435 kts | 210° |
| 2026-04-17 15:13 | 38.88183 | -0.90060 | 35115 ft | 435 kts | 209° |
| 2026-04-17 15:14 | 38.82847 | -0.93715 | 35127 ft | 435 kts | 209° |
| 2026-04-17 15:14 | 38.77506 | -0.97368 | 35129 ft | 435 kts | 209° |
| 2026-04-17 15:15 | 38.72193 | -1.00994 | 35125 ft | 436 kts | 209° |
| 2026-04-17 15:15 | 38.66845 | -1.04635 | 35135 ft | 436 kts | 209° |
| 2026-04-17 15:16 | 38.61486 | -1.08279 | 35131 ft | 436 kts | 209° |
| 2026-04-17 15:16 | 38.56127 | -1.11918 | 35138 ft | 436 kts | 209° |
| 2026-04-17 15:17 | 38.50766 | -1.15553 | 35134 ft | 436 kts | 209° |
| 2026-04-17 15:17 | 38.45442 | -1.19156 | 35133 ft | 436 kts | 209° |
| 2026-04-17 15:18 | 38.40077 | -1.22781 | 35126 ft | 436 kts | 209° |
| 2026-04-17 15:18 | 38.34717 | -1.26397 | 35124 ft | 436 kts | 209° |
| 2026-04-17 15:19 | 38.29352 | -1.30010 | 35117 ft | 436 kts | 209° |
| 2026-04-17 15:19 | 38.24028 | -1.33590 | 35118 ft | 436 kts | 209° |
| 2026-04-17 15:20 | 38.18672 | -1.37184 | 35108 ft | 435 kts | 209° |
| 2026-04-17 15:20 | 38.13317 | -1.40773 | 35102 ft | 435 kts | 208° |
| 2026-04-17 15:21 | 38.07973 | -1.44348 | 35104 ft | 434 kts | 208° |
| 2026-04-17 15:21 | 38.02632 | -1.47915 | 35113 ft | 433 kts | 209° |
| 2026-04-17 15:22 | 37.97334 | -1.51449 | 35113 ft | 434 kts | 208° |
| 2026-04-17 15:22 | 37.91991 | -1.55006 | 35107 ft | 434 kts | 208° |
| 2026-04-17 15:23 | 37.86631 | -1.58529 | 35107 ft | 434 kts | 208° |
| 2026-04-17 15:23 | 37.81258 | -1.62005 | 35118 ft | 434 kts | 208° |
| 2026-04-17 15:24 | 37.75886 | -1.65476 | 35123 ft | 434 kts | 208° |
| 2026-04-17 15:24 | 37.70554 | -1.68924 | 35125 ft | 434 kts | 208° |
| 2026-04-17 15:25 | 37.65176 | -1.72398 | 35115 ft | 434 kts | 208° |
| 2026-04-17 15:25 | 37.59799 | -1.75867 | 35128 ft | 434 kts | 207° |
| 2026-04-17 15:26 | 37.54419 | -1.79331 | 35127 ft | 434 kts | 207° |
| 2026-04-17 15:26 | 37.49076 | -1.82766 | 35134 ft | 434 kts | 207° |
| 2026-04-17 15:27 | 37.43688 | -1.86225 | 35131 ft | 435 kts | 207° |
| 2026-04-17 15:27 | 37.38298 | -1.89679 | 35126 ft | 435 kts | 207° |
| 2026-04-17 15:28 | 37.32905 | -1.93130 | 35131 ft | 435 kts | 207° |
| 2026-04-17 15:28 | 37.27546 | -1.96555 | 35126 ft | 435 kts | 207° |
| 2026-04-17 15:29 | 37.22160 | -2.00021 | 35128 ft | 435 kts | 208° |
| 2026-04-17 15:29 | 37.16819 | -2.03595 | 35131 ft | 435 kts | 208° |
| 2026-04-17 15:30 | 37.11480 | -2.07182 | 35129 ft | 435 kts | 208° |
| 2026-04-17 15:30 | 37.06136 | -2.10750 | 35129 ft | 435 kts | 208° |
| 2026-04-17 15:31 | 37.00822 | -2.14285 | 35129 ft | 435 kts | 208° |
| 2026-04-17 15:31 | 36.95516 | -2.17807 | 35120 ft | 429 kts | 208° |
| 2026-04-17 15:32 | 36.90260 | -2.21293 | 35094 ft | 427 kts | 208° |
| 2026-04-17 15:32 | 36.87638 | -2.23029 | 34760 ft | 425 kts | 208° |
| 2026-04-17 15:32 | 36.85006 | -2.24647 | 34400 ft | 420 kts | 201° |
| 2026-04-17 15:32 | 36.82236 | -2.25741 | 34021 ft | 416 kts | 193° |
| 2026-04-17 15:33 | 36.79432 | -2.26289 | 33593 ft | 413 kts | 184° |
| 2026-04-17 15:33 | 36.76580 | -2.26501 | 33192 ft | 409 kts | 183° |
| 2026-04-17 15:33 | 36.73748 | -2.26673 | 32783 ft | 406 kts | 182° |
| 2026-04-17 15:33 | 36.70940 | -2.26837 | 32394 ft | 403 kts | 182° |
| 2026-04-17 15:34 | 36.68146 | -2.27007 | 32008 ft | 400 kts | 183° |
| 2026-04-17 15:34 | 36.65376 | -2.27183 | 31626 ft | 398 kts | 183° |
| 2026-04-17 15:34 | 36.62620 | -2.27366 | 31245 ft | 395 kts | 183° |
| 2026-04-17 15:34 | 36.59882 | -2.27553 | 30871 ft | 393 kts | 183° |
| 2026-04-17 15:35 | 36.57155 | -2.27742 | 30497 ft | 392 kts | 183° |
| 2026-04-17 15:35 | 36.54478 | -2.27930 | 30114 ft | 390 kts | 183° |
| 2026-04-17 15:35 | 36.51774 | -2.28120 | 29679 ft | 388 kts | 183° |
| 2026-04-17 15:35 | 36.49088 | -2.28308 | 29265 ft | 385 kts | 183° |
| 2026-04-17 15:36 | 36.46419 | -2.28496 | 28863 ft | 383 kts | 183° |
| 2026-04-17 15:36 | 36.43773 | -2.28681 | 28475 ft | 380 kts | 183° |
| 2026-04-17 15:36 | 36.41143 | -2.28866 | 28095 ft | 377 kts | 183° |
| 2026-04-17 15:36 | 36.38535 | -2.29049 | 27720 ft | 374 kts | 183° |
| 2026-04-17 15:37 | 36.35942 | -2.29230 | 27351 ft | 372 kts | 183° |
| 2026-04-17 15:37 | 36.33365 | -2.29410 | 26974 ft | 370 kts | 183° |
| 2026-04-17 15:37 | 36.30801 | -2.29590 | 26604 ft | 368 kts | 183° |
| 2026-04-17 15:37 | 36.28289 | -2.29765 | 26248 ft | 366 kts | 183° |
| 2026-04-17 15:38 | 36.25754 | -2.29942 | 25883 ft | 364 kts | 183° |
| 2026-04-17 15:38 | 36.23230 | -2.30118 | 25514 ft | 363 kts | 183° |
| 2026-04-17 15:38 | 36.20716 | -2.30293 | 25152 ft | 361 kts | 183° |
| 2026-04-17 15:38 | 36.18209 | -2.30468 | 24789 ft | 360 kts | 183° |
| 2026-04-17 15:39 | 36.15710 | -2.30642 | 24415 ft | 359 kts | 183° |
| 2026-04-17 15:39 | 36.13215 | -2.30816 | 24043 ft | 359 kts | 183° |
| 2026-04-17 15:39 | 36.10724 | -2.30989 | 23679 ft | 358 kts | 183° |
| 2026-04-17 15:39 | 36.08271 | -2.31159 | 23257 ft | 357 kts | 183° |
| 2026-04-17 15:40 | 36.05794 | -2.31331 | 22874 ft | 355 kts | 183° |
| 2026-04-17 15:40 | 36.03334 | -2.31502 | 22500 ft | 353 kts | 183° |
| 2026-04-17 15:40 | 36.00889 | -2.31671 | 22135 ft | 351 kts | 184° |
| 2026-04-17 15:40 | 35.98460 | -2.31840 | 21782 ft | 349 kts | 184° |
| 2026-04-17 15:41 | 35.96042 | -2.32007 | 21422 ft | 347 kts | 184° |
| 2026-04-17 15:41 | 35.93642 | -2.32173 | 21073 ft | 345 kts | 184° |
| 2026-04-17 15:41 | 35.91252 | -2.32339 | 20723 ft | 343 kts | 184° |
| 2026-04-17 15:41 | 35.88876 | -2.32503 | 20377 ft | 341 kts | 184° |
| 2026-04-17 15:42 | 35.86541 | -2.32664 | 20031 ft | 340 kts | 184° |
| 2026-04-17 15:42 | 35.84187 | -2.32827 | 19694 ft | 338 kts | 184° |
| 2026-04-17 15:42 | 35.81841 | -2.32989 | 19349 ft | 337 kts | 184° |
| 2026-04-17 15:42 | 35.79503 | -2.33150 | 19005 ft | 336 kts | 184° |
| 2026-04-17 15:43 | 35.77173 | -2.33311 | 18654 ft | 335 kts | 184° |
| 2026-04-17 15:43 | 35.74847 | -2.33471 | 18291 ft | 335 kts | 184° |
| 2026-04-17 15:43 | 35.72525 | -2.33631 | 17907 ft | 333 kts | 184° |
| 2026-04-17 15:43 | 35.70215 | -2.33790 | 17539 ft | 332 kts | 183° |
| 2026-04-17 15:44 | 35.67947 | -2.33946 | 17195 ft | 330 kts | 183° |
| 2026-04-17 15:44 | 35.65660 | -2.34104 | 16846 ft | 328 kts | 183° |
| 2026-04-17 15:44 | 35.63386 | -2.34260 | 16503 ft | 327 kts | 183° |
| 2026-04-17 15:44 | 35.61120 | -2.34416 | 16163 ft | 325 kts | 183° |
| 2026-04-17 15:45 | 35.58867 | -2.34570 | 15824 ft | 324 kts | 183° |
| 2026-04-17 15:45 | 35.56619 | -2.34725 | 15490 ft | 323 kts | 183° |
| 2026-04-17 15:45 | 35.54384 | -2.34878 | 15155 ft | 321 kts | 182° |
| 2026-04-17 15:45 | 35.52152 | -2.35031 | 14825 ft | 321 kts | 182° |
| 2026-04-17 15:46 | 35.49958 | -2.35181 | 14494 ft | 320 kts | 182° |
| 2026-04-17 15:46 | 35.47739 | -2.35333 | 14147 ft | 320 kts | 182° |
| 2026-04-17 15:46 | 35.45519 | -2.35485 | 13799 ft | 319 kts | 182° |
| 2026-04-17 15:46 | 35.43303 | -2.35636 | 13431 ft | 319 kts | 182° |
| 2026-04-17 15:47 | 35.41095 | -2.35787 | 13079 ft | 317 kts | 182° |
| 2026-04-17 15:47 | 35.38896 | -2.35937 | 12738 ft | 316 kts | 182° |
| 2026-04-17 15:47 | 35.36705 | -2.36086 | 12408 ft | 314 kts | 182° |
| 2026-04-17 15:47 | 35.34526 | -2.36235 | 12077 ft | 313 kts | 182° |
| 2026-04-17 15:48 | 35.32351 | -2.36384 | 11740 ft | 312 kts | 182° |
| 2026-04-17 15:48 | 35.30213 | -2.36529 | 11407 ft | 312 kts | 182° |
| 2026-04-17 15:48 | 35.28051 | -2.36677 | 11072 ft | 311 kts | 182° |
| 2026-04-17 15:48 | 35.25893 | -2.36824 | 10742 ft | 310 kts | 182° |
| 2026-04-17 15:49 | 35.23741 | -2.36970 | 10420 ft | 309 kts | 182° |
| 2026-04-17 15:49 | 35.21622 | -2.37114 | 10281 ft | 301 kts | 182° |
| 2026-04-17 15:49 | 35.19550 | -2.37255 | 10129 ft | 295 kts | 182° |
| 2026-04-17 15:49 | 35.17510 | -2.37394 | 9815 ft | 294 kts | 182° |
| 2026-04-17 15:50 | 35.15476 | -2.37532 | 9521 ft | 292 kts | 182° |
| 2026-04-17 15:50 | 35.13497 | -2.37345 | 9201 ft | 289 kts | 160° |
| 2026-04-17 15:50 | 35.11757 | -2.36191 | 8928 ft | 284 kts | 138° |
| 2026-04-17 15:50 | 35.10333 | -2.34522 | 8627 ft | 283 kts | 133° |
| 2026-04-17 15:51 | 35.08976 | -2.32791 | 8324 ft | 282 kts | 132° |
| 2026-04-17 15:51 | 35.07630 | -2.31061 | 8035 ft | 280 kts | 133° |
| 2026-04-17 15:51 | 35.06285 | -2.29344 | 7750 ft | 279 kts | 133° |
| 2026-04-17 15:51 | 35.04938 | -2.27639 | 7476 ft | 278 kts | 133° |
| 2026-04-17 15:52 | 35.03610 | -2.25968 | 7358 ft | 270 kts | 133° |
| 2026-04-17 15:52 | 35.02334 | -2.24367 | 7230 ft | 263 kts | 134° |
| 2026-04-17 15:52 | 35.01073 | -2.22788 | 7108 ft | 256 kts | 134° |
| 2026-04-17 15:52 | 34.99834 | -2.21242 | 6919 ft | 253 kts | 134° |
| 2026-04-17 15:53 | 34.98616 | -2.19723 | 6717 ft | 251 kts | 134° |
| 2026-04-17 15:53 | 34.97396 | -2.18203 | 6459 ft | 251 kts | 134° |
| 2026-04-17 15:53 | 34.96201 | -2.16656 | 6183 ft | 251 kts | 131° |
| 2026-04-17 15:53 | 34.95060 | -2.15045 | 5907 ft | 251 kts | 130° |
| 2026-04-17 15:54 | 34.93924 | -2.13426 | 5630 ft | 251 kts | 130° |
| 2026-04-17 15:54 | 34.92786 | -2.11812 | 5353 ft | 251 kts | 130° |
| 2026-04-17 15:54 | 34.91675 | -2.10242 | 5237 ft | 244 kts | 130° |
| 2026-04-17 15:54 | 34.90586 | -2.08706 | 5179 ft | 235 kts | 130° |
| 2026-04-17 15:55 | 34.89524 | -2.07214 | 5192 ft | 233 kts | 130° |
| 2026-04-17 15:55 | 34.88464 | -2.05725 | 5173 ft | 233 kts | 130° |
| 2026-04-17 15:55 | 34.87392 | -2.04218 | 4859 ft | 238 kts | 130° |
| 2026-04-17 15:55 | 34.86286 | -2.02665 | 4332 ft | 251 kts | 130° |
| 2026-04-17 15:56 | 34.85111 | -2.01013 | 3773 ft | 265 kts | 130° |
| 2026-04-17 15:56 | 34.83897 | -1.99305 | 3454 ft | 262 kts | 129° |
| 2026-04-17 15:56 | 34.82755 | -1.97709 | 3319 ft | 246 kts | 128° |
| 2026-04-17 15:56 | 34.81453 | -1.96459 | 3131 ft | 235 kts | 153° |
| 2026-04-17 15:57 | 34.79918 | -1.95979 | 2984 ft | 222 kts | 170° |
| 2026-04-17 15:57 | 34.78466 | -1.95755 | 2990 ft | 200 kts | 175° |
| 2026-04-17 15:57 | 34.77115 | -1.95929 | 3034 ft | 194 kts | 199° |
| 2026-04-17 15:57 | 34.76097 | -1.96894 | 3248 ft | 184 kts | 242° |
| 2026-04-17 15:58 | 34.75842 | -1.98409 | 3696 ft | 188 kts | 279° |
| 2026-04-17 15:58 | 34.76078 | -1.99999 | 4119 ft | 193 kts | 284° |
| 2026-04-17 15:58 | 34.76366 | -2.01576 | 4499 ft | 190 kts | 287° |
| 2026-04-17 15:58 | 34.77068 | -2.02897 | 4415 ft | 188 kts | 331° |
| 2026-04-17 15:59 | 34.78222 | -2.03606 | 4406 ft | 186 kts | 334° |
| 2026-04-17 15:59 | 34.79358 | -2.04337 | 4398 ft | 184 kts | 333° |
| 2026-04-17 15:59 | 34.80487 | -2.05099 | 4403 ft | 188 kts | 333° |
| 2026-04-17 15:59 | 34.81622 | -2.05894 | 4401 ft | 188 kts | 331° |
| 2026-04-17 16:00 | 34.82750 | -2.06709 | 4418 ft | 190 kts | 330° |
| 2026-04-17 16:00 | 34.83884 | -2.07558 | 4414 ft | 192 kts | 330° |
| 2026-04-17 16:00 | 34.85012 | -2.08412 | 4389 ft | 189 kts | 330° |
| 2026-04-17 16:00 | 34.86098 | -2.09239 | 4390 ft | 184 kts | 331° |
| 2026-04-17 16:01 | 34.87183 | -2.10064 | 4398 ft | 184 kts | 329° |
| 2026-04-17 16:01 | 34.88277 | -2.10906 | 4391 ft | 188 kts | 330° |
| 2026-04-17 16:01 | 34.89416 | -2.11669 | 4388 ft | 188 kts | 349° |
| 2026-04-17 16:01 | 34.90623 | -2.11405 | 4397 ft | 179 kts | 39° |
| 2026-04-17 16:02 | 34.91140 | -2.10121 | 4449 ft | 178 kts | 94° |
| 2026-04-17 16:02 | 34.90609 | -2.08710 | 4411 ft | 190 kts | 131° |
| 2026-04-17 16:02 | 34.89714 | -2.07505 | 4323 ft | 197 kts | 128° |
| 2026-04-17 16:02 | 34.88834 | -2.06242 | 4107 ft | 198 kts | 127° |
| 2026-04-17 16:03 | 34.87945 | -2.04971 | 3797 ft | 195 kts | 130° |
| 2026-04-17 16:03 | 34.87063 | -2.03751 | 3546 ft | 190 kts | 127° |
| 2026-04-17 16:03 | 34.86195 | -2.02549 | 3239 ft | 185 kts | 128° |
| 2026-04-17 16:03 | 34.85376 | -2.01385 | 2995 ft | 176 kts | 128° |
| 2026-04-17 16:04 | 34.84603 | -2.00307 | 2760 ft | 159 kts | 127° |
| 2026-04-17 16:04 | 34.83912 | -1.99334 | 2486 ft | 146 kts | 127° |
| 2026-04-17 16:04 | 34.83250 | -1.98402 | 2294 ft | 149 kts | 127° |
| 2026-04-17 16:04 | 34.82568 | -1.97445 | 2066 ft | 153 kts | 128° |
| 2026-04-17 16:05 | 34.81876 | -1.96472 | 1813 ft | 148 kts | 129° |
| 2026-04-17 16:05 | 34.81215 | -1.95544 | 1620 ft | 144 kts | 127° |
| 2026-04-17 16:05 | 34.80590 | -1.94659 | 1522 ft | 123 kts | 133° |
| 2026-04-17 16:05 | 34.80127 | -1.94016 | 1523 ft | 79 kts | 130° |
| 2026-04-17 16:06 | 34.79848 | -1.93635 | 1521 ft | 50 kts | 130° |
| 2026-04-17 16:06 | 34.79673 | -1.93413 | 1526 ft | 32 kts | 150° |
| 2026-04-17 16:06 | 34.79476 | -1.93303 | 1525 ft | 30 kts | 156° |
| 2026-04-17 16:06 | 34.79284 | -1.93223 | 1525 ft | 28 kts | 177° |
| 2026-04-17 16:07 | 34.79119 | -1.93328 | 1523 ft | 27 kts | 211° |
| 2026-04-17 16:07 | 34.78967 | -1.93447 | 1518 ft | 25 kts | 214° |
| 2026-04-17 16:07 | 34.78826 | -1.93559 | 1519 ft | 23 kts | 212° |
| 2026-04-17 16:07 | 34.78699 | -1.93665 | 1525 ft | 19 kts | 218° |
| 2026-04-17 16:08 | 34.78687 | -1.93776 | 1522 ft | 12 kts | 277° |
| 2026-04-17 16:08 | 34.78696 | -1.93849 | 1525 ft | 6 kts | 278° |
| 2026-04-17 16:08 | 34.78699 | -1.93876 | 1518 ft | 0 kts | 277° |